Time;durP1;ratioP1;P1;durP2;ratioP2;P2;SDS_P1;SDS_P2;PMS_P1;PMS_P2;Temp;Humidity;BMP_temperature;BMP_pressure;BME280_temperature;BME280_humidity;BME280_pressure;Samples;Min_cycle;Max_cycle;Signal;HPM_P1;HPM_P2
2022/03/15 00:02:12;;;;;;;1999.90;999.90;;;13.20;57.80;;;;;;4969641;28;20054;-84
2022/03/15 00:04:38;;;;;;;1999.90;999.90;;;13.20;58.00;;;;;;4971696;28;20046;-84
2022/03/15 00:07:05;;;;;;;1999.90;999.90;;;13.30;58.10;;;;;;4971009;28;20511;-84
2022/03/15 00:09:31;;;;;;;1999.90;999.90;;;13.20;58.20;;;;;;4972096;28;20050;-85
2022/03/15 00:11:57;;;;;;;1999.90;999.90;;;13.30;58.30;;;;;;4972317;28;20408;-84
2022/03/15 00:14:23;;;;;;;1999.90;999.90;;;13.30;58.30;;;;;;4970515;28;20035;-85
2022/03/15 00:16:49;;;;;;;1999.90;999.90;;;13.30;58.40;;;;;;4970689;28;20488;-84
2022/03/15 00:19:16;;;;;;;1999.90;999.90;;;13.30;58.40;;;;;;4969135;28;20031;-85
2022/03/15 00:21:42;;;;;;;1999.90;999.90;;;13.20;58.30;;;;;;4970491;28;20027;-85
2022/03/15 00:24:08;;;;;;;1999.90;999.90;;;13.30;58.40;;;;;;4953041;28;20034;-84
2022/03/15 00:26:35;;;;;;;1999.90;999.90;;;13.30;58.50;;;;;;4970218;28;20031;-84
2022/03/15 00:29:01;;;;;;;1999.90;999.90;;;13.20;58.60;;;;;;4972733;28;20058;-84
2022/03/15 00:31:27;;;;;;;1999.90;999.90;;;13.30;58.70;;;;;;4970009;28;20042;-84
2022/03/15 00:33:53;;;;;;;1999.90;999.90;;;13.20;58.70;;;;;;4969260;28;20049;-84
2022/03/15 00:36:20;;;;;;;1999.90;999.90;;;13.20;58.70;;;;;;4969729;28;20030;-85
2022/03/15 00:38:46;;;;;;;1999.90;999.90;;;13.20;58.70;;;;;;4970861;28;20051;-84
2022/03/15 00:41:12;;;;;;;1999.90;999.90;;;13.20;59.00;;;;;;4969968;28;20035;-84
2022/03/15 00:43:38;;;;;;;1999.90;999.90;;;13.20;59.40;;;;;;4972933;28;20031;-84
2022/03/15 00:46:04;;;;;;;1999.90;999.90;;;13.10;59.70;;;;;;4953901;28;20037;-84
2022/03/15 00:48:30;;;;;;;1999.90;999.90;;;13.10;59.70;;;;;;4968896;28;20050;-84
2022/03/15 00:50:56;;;;;;;1999.90;999.90;;;13.00;59.90;;;;;;4954774;28;20042;-83
2022/03/15 00:53:22;;;;;;;1999.90;999.90;;;13.00;60.00;;;;;;4971902;28;20316;-84
2022/03/15 00:55:48;;;;;;;1999.90;999.90;;;12.90;60.20;;;;;;4956311;28;20047;-84
2022/03/15 00:58:14;;;;;;;1999.90;999.90;;;12.90;60.30;;;;;;4969134;28;20041;-84
2022/03/15 01:00:44;;;;;;;1999.90;999.90;;;12.90;60.50;;;;;;4969826;28;20035;-84
2022/03/15 01:03:10;;;;;;;1999.90;999.90;;;12.80;60.50;;;;;;4966712;28;20049;-84
2022/03/15 01:05:37;;;;;;;1999.90;999.90;;;12.80;60.60;;;;;;4972328;28;20035;-85
2022/03/15 01:08:03;;;;;;;1999.90;999.90;;;12.80;60.60;;;;;;4970021;28;20053;-85
2022/03/15 01:10:29;;;;;;;1999.90;999.90;;;12.80;60.60;;;;;;4972366;28;20035;-87
2022/03/15 01:12:55;;;;;;;1999.90;999.90;;;12.70;60.60;;;;;;4967415;28;20031;-86
2022/03/15 01:15:25;;;;;;;1999.90;999.90;;;12.80;60.90;;;;;;4966866;28;20037;-84
2022/03/15 01:17:51;;;;;;;1999.90;999.90;;;12.70;61.00;;;;;;4971234;28;20039;-85
2022/03/15 01:20:18;;;;;;;1999.90;999.90;;;12.70;61.30;;;;;;4953811;28;20035;-84
2022/03/15 01:22:44;;;;;;;1999.90;999.90;;;12.70;61.30;;;;;;4971468;28;20038;-84
2022/03/15 01:25:10;;;;;;;1999.90;999.90;;;12.70;61.30;;;;;;4970571;28;20035;-84
2022/03/15 01:27:37;;;;;;;1999.90;999.90;;;12.70;61.40;;;;;;4969044;28;20053;-84
2022/03/15 01:30:03;;;;;;;1999.90;999.90;;;12.70;61.40;;;;;;4968734;28;20035;-83
2022/03/15 01:32:29;;;;;;;1999.90;999.90;;;12.70;61.50;;;;;;4966383;28;20038;-85
2022/03/15 01:34:55;;;;;;;1999.90;999.90;;;12.60;61.70;;;;;;4971324;28;20038;-85
2022/03/15 01:37:22;;;;;;;1999.90;999.90;;;12.70;61.80;;;;;;4970699;28;20455;-84
2022/03/15 01:39:48;;;;;;;1999.90;999.90;;;12.60;61.90;;;;;;4952345;28;20416;-84
2022/03/15 01:42:14;;;;;;;1999.90;999.90;;;12.60;62.10;;;;;;4968180;28;20041;-86
2022/03/15 01:44:45;;;;;;;1999.90;999.90;;;12.60;62.40;;;;;;4971165;28;20031;-85
2022/03/15 01:47:11;;;;;;;;;;;12.50;62.40;;;;;;4970800;28;20447;-85
2022/03/15 01:49:37;;;;;;;1999.90;999.90;;;12.50;62.50;;;;;;4971683;28;19918;-86
2022/03/15 01:52:04;;;;;;;1999.90;999.90;;;12.50;62.70;;;;;;4968394;28;20038;-86
2022/03/15 01:54:30;;;;;;;1999.90;999.90;;;12.50;62.90;;;;;;4967891;28;20038;-86
2022/03/15 01:56:56;;;;;;;1999.90;999.90;;;12.40;63.20;;;;;;4968936;28;20033;-86
2022/03/15 01:59:22;;;;;;;1999.90;999.90;;;12.40;63.10;;;;;;4953562;28;20043;-86
2022/03/15 02:01:48;;;;;;;1999.90;999.90;;;12.40;63.10;;;;;;4969171;28;20054;-86
2022/03/15 02:04:15;;;;;;;1999.90;999.90;;;12.40;63.10;;;;;;4954581;28;20030;-85
2022/03/15 02:06:50;;;;;;;1999.90;999.90;;;12.40;63.20;;;;;;4968435;28;20026;-87
2022/03/15 02:09:16;;;;;;;1999.90;999.90;;;12.40;63.10;;;;;;4954612;28;20058;-86
2022/03/15 02:11:46;;;;;;;1999.90;999.90;;;12.40;63.20;;;;;;4968630;28;20035;-86
2022/03/15 02:14:12;;;;;;;1999.90;999.90;;;12.40;63.20;;;;;;4969903;28;20050;-85
2022/03/15 02:16:38;;;;;;;1999.90;999.90;;;12.40;63.30;;;;;;4969469;28;20039;-85
2022/03/15 02:19:04;;;;;;;1999.90;999.90;;;12.40;63.40;;;;;;4968148;28;20049;-86
2022/03/15 02:21:31;;;;;;;1999.90;999.90;;;12.40;63.70;;;;;;4952584;28;20031;-86
2022/03/15 02:23:57;;;;;;;1999.90;999.90;;;12.30;63.90;;;;;;4968475;28;20480;-86
2022/03/15 02:26:23;;;;;;;1999.90;999.90;;;12.30;63.90;;;;;;4967890;28;20028;-86
2022/03/15 02:28:49;;;;;;;1999.90;999.90;;;12.30;64.00;;;;;;4957157;28;20047;-86
2022/03/15 02:31:15;;;;;;;1999.90;999.90;;;12.30;64.00;;;;;;4969697;28;20031;-86
2022/03/15 02:33:42;;;;;;;1999.90;999.90;;;12.30;64.20;;;;;;4972930;28;20042;-85
2022/03/15 02:36:08;;;;;;;1999.90;999.90;;;12.30;64.60;;;;;;4971698;28;20038;-85
2022/03/15 02:38:34;;;;;;;1999.90;999.90;;;12.20;64.70;;;;;;4972003;28;20058;-85
2022/03/15 02:41:00;;;;;;;1999.90;999.90;;;12.30;64.80;;;;;;4972734;28;20388;-85
2022/03/15 02:43:26;;;;;;;1999.90;999.90;;;12.20;64.70;;;;;;4975317;28;20035;-85
2022/03/15 02:45:52;;;;;;;1999.90;999.90;;;12.20;64.60;;;;;;4971844;28;20042;-84
2022/03/15 02:48:18;;;;;;;1999.90;999.90;;;12.20;64.70;;;;;;4949309;28;20037;-85
2022/03/15 02:50:45;;;;;;;1999.90;999.90;;;12.20;65.50;;;;;;4970603;28;20038;-86
2022/03/15 02:53:11;;;;;;;1999.90;999.90;;;12.20;64.80;;;;;;4972761;28;20060;-85
2022/03/15 02:55:37;;;;;;;1999.90;999.90;;;12.20;64.80;;;;;;4974768;28;20399;-84
2022/03/15 02:58:03;;;;;;;1999.90;999.90;;;12.20;64.80;;;;;;4971598;28;20033;-85
2022/03/15 03:00:29;;;;;;;1999.90;999.90;;;12.20;65.00;;;;;;4956022;28;20047;-85
2022/03/15 03:02:56;;;;;;;1999.90;999.90;;;12.20;65.20;;;;;;4968216;28;20042;-85
2022/03/15 03:05:22;;;;;;;1999.90;999.90;;;12.20;65.60;;;;;;4969355;28;20031;-86
2022/03/15 03:07:48;;;;;;;1999.90;999.90;;;12.20;65.80;;;;;;4966678;28;20381;-86
2022/03/15 03:10:16;;;;;;;1999.90;999.90;;;12.10;65.70;;;;;;4970559;28;20058;-86
2022/03/15 03:12:44;;;;;;;1999.90;999.90;;;12.10;65.80;;;;;;4954886;28;20027;-86
2022/03/15 03:15:12;;;;;;;1999.90;999.90;;;12.10;65.80;;;;;;4968028;28;20045;-85
2022/03/15 03:17:41;;;;;;;1999.90;999.90;;;12.10;65.80;;;;;;4951326;28;20034;-85
2022/03/15 03:20:13;;;;;;;1999.90;999.90;;;12.10;65.70;;;;;;4955765;28;20373;-85
2022/03/15 03:22:39;;;;;;;;;;;12.10;65.80;;;;;;4956622;28;20062;-85
2022/03/15 03:25:05;;;;;;;1999.90;999.90;;;12.10;66.00;;;;;;4970668;28;19910;-85
2022/03/15 03:27:32;;;;;;;1999.90;999.90;;;12.10;65.90;;;;;;4951143;28;20035;-85
2022/03/15 03:29:58;;;;;;;1999.90;999.90;;;12.10;65.80;;;;;;4952753;28;20051;-87
2022/03/15 03:32:25;;;;;;;1999.90;999.90;;;12.10;66.00;;;;;;4936816;28;20027;-86
2022/03/15 03:34:52;;;;;;;1999.90;999.90;;;12.10;66.20;;;;;;4969689;28;20052;-85
2022/03/15 03:37:18;;;;;;;1999.90;999.90;;;12.10;66.20;;;;;;4969956;28;20038;-85
2022/03/15 03:39:45;;;;;;;1999.90;999.90;;;12.00;66.40;;;;;;4970969;28;20054;-85
2022/03/15 03:42:11;;;;;;;1999.90;999.90;;;12.10;66.60;;;;;;4956333;28;20492;-86
2022/03/15 03:44:38;;;;;;;1999.90;999.90;;;12.00;66.50;;;;;;4971239;28;20510;-85
2022/03/15 03:47:05;;;;;;;1999.90;999.90;;;12.10;66.60;;;;;;4970581;28;20035;-82
2022/03/15 03:49:32;;;;;;;1999.90;999.90;;;12.00;66.50;;;;;;4970043;28;20038;-85
2022/03/15 03:51:58;;;;;;;1999.90;999.90;;;12.10;66.60;;;;;;4973041;28;20027;-84
2022/03/15 03:54:25;;;;;;;1999.90;999.90;;;12.10;67.00;;;;;;4972346;28;20035;-84
2022/03/15 03:56:51;;;;;;;1999.90;999.90;;;12.00;67.00;;;;;;4971571;28;20027;-83
2022/03/15 03:59:17;;;;;;;1999.90;999.90;;;12.00;67.10;;;;;;4955070;28;20043;-84
2022/03/15 04:01:43;;;;;;;1999.90;999.90;;;12.00;66.90;;;;;;4973311;28;20039;-84
2022/03/15 04:04:10;;;;;;;1999.90;999.90;;;12.00;67.00;;;;;;4971591;28;20035;-85
2022/03/15 04:06:38;;;;;;;1999.90;999.90;;;12.10;67.00;;;;;;4954173;28;20049;-84
2022/03/15 04:09:04;;;;;;;1999.90;999.90;;;12.00;67.10;;;;;;4941191;28;20061;-84
2022/03/15 04:11:31;;;;;;;1999.90;999.90;;;12.10;67.10;;;;;;4971263;28;20053;-84
2022/03/15 04:14:01;;;;;;;1999.90;999.90;;;12.10;67.30;;;;;;4973680;28;20042;-84
2022/03/15 04:16:27;;;;;;;1999.90;999.90;;;12.00;67.20;;;;;;4973267;28;20042;-84
2022/03/15 04:18:54;;;;;;;1999.90;999.90;;;12.00;67.20;;;;;;4971477;28;20050;-84
2022/03/15 04:21:24;;;;;;;1999.90;999.90;;;12.00;67.20;;;;;;4972490;28;20026;-85
2022/03/15 04:23:56;;;;;;;1999.90;999.90;;;12.00;67.20;;;;;;4972689;28;20615;-84
2022/03/15 04:26:23;;;;;;;1999.90;999.90;;;12.10;67.70;;;;;;4957141;28;20499;-85
2022/03/15 04:28:49;;;;;;;1999.90;999.90;;;12.00;67.90;;;;;;4974270;28;20043;-85
2022/03/15 04:31:16;;;;;;;1999.90;999.90;;;12.00;67.90;;;;;;4972048;28;20042;-85
2022/03/15 04:33:42;;;;;;;1999.90;999.90;;;12.00;68.20;;;;;;4952096;28;20042;-85
2022/03/15 04:36:08;;;;;;;1999.90;999.90;;;11.90;68.20;;;;;;4972386;28;20049;-84
2022/03/15 04:38:35;;;;;;;1999.90;999.90;;;11.90;68.20;;;;;;4939922;28;20130;-84
2022/03/15 04:41:01;;;;;;;1999.90;999.90;;;11.90;68.40;;;;;;4972283;28;20387;-85
2022/03/15 04:43:27;;;;;;;1999.90;999.90;;;11.90;68.40;;;;;;4940212;28;20047;-84
2022/03/15 04:45:53;;;;;;;1999.90;999.90;;;11.90;68.50;;;;;;4971828;28;20492;-84
2022/03/15 04:48:20;;;;;;;1999.90;999.90;;;11.90;68.60;;;;;;4972120;28;20030;-85
2022/03/15 04:50:46;;;;;;;1999.90;999.90;;;11.90;68.80;;;;;;4972669;28;20503;-84
2022/03/15 04:53:13;;;;;;;1999.90;999.90;;;11.80;69.00;;;;;;4956189;28;20079;-83
2022/03/15 04:55:39;;;;;;;1999.90;999.90;;;11.80;69.10;;;;;;4973428;28;20027;-84
2022/03/15 04:58:05;;;;;;;1999.90;999.90;;;11.80;69.30;;;;;;4943185;28;20038;-83
2022/03/15 05:00:31;;;;;;;1999.90;999.90;;;11.80;69.60;;;;;;4955524;28;20396;-85
2022/03/15 05:02:58;;;;;;;1999.90;999.90;;;11.80;69.60;;;;;;4972020;28;20094;-84
2022/03/15 05:05:24;;;;;;;1999.90;999.90;;;11.80;69.70;;;;;;4971736;28;20045;-84
2022/03/15 05:07:50;;;;;;;1999.90;999.90;;;11.80;70.00;;;;;;4956234;28;20029;-84
2022/03/15 05:13:01;;;;;;;1999.90;999.90;;;11.70;70.10;;;;;;4959163;28;20484;-85
2022/03/15 05:15:27;;;;;;;1999.90;999.90;;;11.70;70.30;;;;;;4971474;28;20059;-85
2022/03/15 05:17:54;;;;;;;1999.90;999.90;;;11.70;70.40;;;;;;4955676;28;20049;-84
2022/03/15 05:20:20;;;;;;;1999.90;999.90;;;11.70;70.70;;;;;;4950250;28;20035;-85
2022/03/15 05:22:46;;;;;;;1999.90;999.90;;;11.70;70.90;;;;;;4955137;28;20031;-84
2022/03/15 05:25:13;;;;;;;1999.90;999.90;;;11.70;71.20;;;;;;4969965;28;20035;-84
2022/03/15 05:27:40;;;;;;;1999.90;999.90;;;11.70;71.70;;;;;;4938928;28;20038;-84
2022/03/15 05:30:06;;;;;;;1999.90;999.90;;;11.70;71.60;;;;;;4954909;28;20106;-84
2022/03/15 05:32:33;;;;;;;1999.90;999.90;;;11.70;71.60;;;;;;4954406;28;20034;-84
2022/03/15 05:34:59;;;;;;;1999.90;999.90;;;11.70;72.00;;;;;;4939392;28;20046;-85
2022/03/15 05:37:25;;;;;;;1999.90;999.90;;;11.70;72.10;;;;;;4971307;28;20480;-87
2022/03/15 05:39:51;;;;;;;1999.90;999.90;;;11.70;72.00;;;;;;4969138;28;20055;-88
2022/03/15 05:42:18;;;;;;;1999.90;999.90;;;11.70;72.10;;;;;;4951205;28;20035;-89
2022/03/15 05:44:44;;;;;;;1999.90;999.90;;;11.70;72.00;;;;;;4951715;28;20031;-88
2022/03/15 05:47:11;;;;;;;1999.90;999.90;;;11.70;71.90;;;;;;4953119;28;20030;-87
2022/03/15 05:49:37;;;;;;;1999.90;999.90;;;11.70;71.70;;;;;;4955998;28;20403;-87
2022/03/15 05:52:03;;;;;;;1999.90;999.90;;;11.70;71.60;;;;;;4971587;28;20046;-87
2022/03/15 05:54:30;;;;;;;1999.90;999.90;;;11.70;71.50;;;;;;4972102;28;20035;-89
2022/03/15 05:56:56;;;;;;;1999.90;999.90;;;11.80;71.50;;;;;;4954856;28;20043;-88
2022/03/15 05:59:22;;;;;;;1999.90;999.90;;;11.70;71.50;;;;;;4971350;28;20469;-88
2022/03/15 06:01:49;;;;;;;1999.90;999.90;;;11.70;71.70;;;;;;4937996;28;20484;-87
2022/03/15 06:04:15;;;;;;;1999.90;999.90;;;11.70;71.80;;;;;;4975044;28;20030;-88
2022/03/15 06:06:41;;;;;;;1999.90;999.90;;;11.70;71.80;;;;;;4974285;28;20034;-88
2022/03/15 06:09:07;;;;;;;1999.90;999.90;;;11.80;71.70;;;;;;4975677;28;20373;-87
2022/03/15 06:11:34;;;;;;;1999.90;999.90;;;11.80;71.80;;;;;;4958837;28;20039;-87
2022/03/15 06:14:01;;;;;;;1999.90;999.90;;;11.80;71.80;;;;;;4976117;28;20039;-88
2022/03/15 06:16:27;;;;;;;1999.90;999.90;;;11.80;71.80;;;;;;4958047;28;20038;-89
2022/03/15 06:18:53;;;;;;;1999.90;999.90;;;11.80;71.60;;;;;;4955663;28;20042;-85
2022/03/15 06:21:19;;;;;;;1999.90;999.90;;;11.80;71.50;;;;;;4974622;28;20038;-87
2022/03/15 06:23:45;;;;;;;1999.90;999.90;;;11.80;71.40;;;;;;4957613;28;20049;-87
2022/03/15 06:26:12;;;;;;;1999.90;999.90;;;11.80;71.40;;;;;;4974893;28;20042;-84
2022/03/15 06:28:38;;;;;;;1999.90;999.90;;;11.90;71.30;;;;;;4975410;28;20053;-87
2022/03/15 06:31:04;;;;;;;1999.90;999.90;;;11.90;71.20;;;;;;4973946;28;20217;-86
2022/03/15 06:33:30;;;;;;;1999.90;999.90;;;11.90;71.30;;;;;;4958879;28;20031;-87
2022/03/15 06:35:57;;;;;;;1999.90;999.90;;;11.90;71.30;;;;;;4973833;28;20061;-86
2022/03/15 06:38:24;;;;;;;1999.90;999.90;;;11.90;71.30;;;;;;4974523;28;20055;-86
2022/03/15 06:40:52;;;;;;;1999.90;999.90;;;11.90;71.20;;;;;;4959118;28;20054;-86
2022/03/15 06:43:19;;;;;;;1999.90;999.90;;;11.90;71.10;;;;;;4959090;28;20050;-86
2022/03/15 06:45:46;;;;;;;1999.90;999.90;;;11.90;71.10;;;;;;4973862;28;20501;-86
2022/03/15 06:48:12;;;;;;;1999.90;999.90;;;11.90;71.10;;;;;;4975419;28;20484;-86
2022/03/15 06:50:40;;;;;;;1999.90;999.90;;;11.90;71.10;;;;;;4974335;28;20034;-89
2022/03/15 06:53:06;;;;;;;1505.60;755.33;;;11.90;71.20;;;;;;4960159;28;20038;-87
2022/03/15 06:55:32;;;;;;;1999.90;999.90;;;11.90;71.10;;;;;;4973688;28;20039;-87
2022/03/15 06:58:00;;;;;;;1505.55;755.30;;;12.00;71.10;;;;;;4973726;28;20388;-88
2022/03/15 07:00:26;;;;;;;1999.90;999.90;;;12.00;71.10;;;;;;4972168;28;20039;-89
2022/03/15 07:02:52;;;;;;;1999.90;999.90;;;12.00;71.10;;;;;;4971170;28;20038;-87
2022/03/15 07:05:18;;;;;;;1505.57;755.33;;;12.00;71.00;;;;;;4955535;28;20031;-87
2022/03/15 07:07:44;;;;;;;1505.95;755.67;;;12.00;71.00;;;;;;4958266;28;20039;-87
2022/03/15 07:10:11;;;;;;;1999.90;999.90;;;12.00;71.00;;;;;;4973853;28;20057;-87
2022/03/15 07:12:38;;;;;;;1999.90;999.90;;;12.00;71.10;;;;;;4953407;28;20045;-89
2022/03/15 07:15:05;;;;;;;1999.90;999.90;;;12.10;71.10;;;;;;4955650;28;20038;-88
2022/03/15 07:17:32;;;;;;;1999.90;999.90;;;12.00;71.10;;;;;;4958126;28;20042;-85
2022/03/15 07:19:58;;;;;;;1999.90;999.90;;;12.10;71.10;;;;;;4974610;28;20038;-86
2022/03/15 07:22:25;;;;;;;23.92;22.83;;;12.10;71.20;;;;;;4957986;28;20039;-86
2022/03/15 07:24:51;;;;;;;1999.90;999.90;;;12.10;71.10;;;;;;4972978;28;20045;-86
2022/03/15 07:27:18;;;;;;;1999.90;999.90;;;12.20;71.20;;;;;;4957355;28;20031;-85
2022/03/15 07:29:44;;;;;;;1999.90;999.90;;;12.20;71.30;;;;;;4951246;28;20049;-87
2022/03/15 07:32:10;;;;;;;1999.90;999.90;;;12.10;71.30;;;;;;4974545;28;20035;-87
2022/03/15 07:34:36;;;;;;;1999.90;999.90;;;12.20;71.50;;;;;;4958200;28;20039;-87
2022/03/15 07:37:03;;;;;;;1999.90;999.90;;;12.20;71.50;;;;;;4973950;28;20041;-88
2022/03/15 07:39:29;;;;;;;1999.90;999.90;;;12.10;71.50;;;;;;4955887;28;20053;-86
2022/03/15 07:41:57;;;;;;;1999.90;999.90;;;12.20;71.50;;;;;;4941600;28;20039;-86
2022/03/15 07:44:24;;;;;;;1999.90;999.90;;;12.20;71.50;;;;;;4973647;28;20047;-85
2022/03/15 07:46:50;;;;;;;1999.90;999.90;;;12.20;71.50;;;;;;4973848;28;20472;-85
2022/03/15 07:49:20;;;;;;;1999.90;999.90;;;12.20;71.40;;;;;;4970030;28;20053;-84
2022/03/15 07:51:47;;;;;;;1999.90;999.90;;;12.20;71.40;;;;;;4969953;28;20443;-90
2022/03/15 07:54:13;;;;;;;1999.90;999.90;;;12.20;71.50;;;;;;4956455;28;20496;-86
2022/03/15 07:56:40;;;;;;;1999.90;999.90;;;12.30;71.60;;;;;;4939240;28;20042;-87
2022/03/15 07:59:07;;;;;;;1999.90;999.90;;;12.30;71.60;;;;;;4971215;28;20027;-87
2022/03/15 08:01:34;;;;;;;1999.90;999.90;;;12.30;71.60;;;;;;4970691;28;20055;-87
2022/03/15 08:04:01;;;;;;;1999.90;999.90;;;12.30;71.80;;;;;;4968356;28;20035;-88
2022/03/15 08:06:27;;;;;;;1999.90;999.90;;;12.30;71.90;;;;;;4970248;28;20043;-90
2022/03/15 08:08:57;;;;;;;1999.90;999.90;;;12.30;72.00;;;;;;4971041;28;20056;-85
2022/03/15 08:11:24;;;;;;;1999.90;999.90;;;12.30;71.90;;;;;;4970858;28;20035;-86
2022/03/15 08:13:53;;;;;;;1999.90;999.90;;;12.30;72.00;;;;;;4952683;28;20043;-86
2022/03/15 08:16:19;;;;;;;1999.90;999.90;;;12.30;72.00;;;;;;4938665;28;20043;-85
2022/03/15 08:18:45;;;;;;;1999.90;999.90;;;12.30;71.90;;;;;;4935338;29;20469;-83
2022/03/15 08:21:11;;;;;;;1999.90;999.90;;;12.30;72.00;;;;;;4961639;28;20038;-87
2022/03/15 08:23:37;;;;;;;1999.90;999.90;;;12.30;72.10;;;;;;4971184;28;20026;-87
2022/03/15 08:26:04;;;;;;;1999.90;999.90;;;12.30;72.10;;;;;;4961849;28;20507;-87
2022/03/15 08:28:30;;;;;;;1999.90;999.90;;;12.30;72.00;;;;;;4972254;28;20034;-86
2022/03/15 08:30:56;;;;;;;1999.90;999.90;;;12.40;72.10;;;;;;4938517;28;20496;-86
2022/03/15 08:33:23;;;;;;;1999.90;999.90;;;12.40;72.00;;;;;;4955929;28;20031;-85
2022/03/15 08:35:49;;;;;;;1999.90;999.90;;;12.40;72.10;;;;;;4969819;28;20365;-87
2022/03/15 08:38:15;;;;;;;1999.90;999.90;;;12.50;72.10;;;;;;4954704;28;20046;-86
2022/03/15 08:40:42;;;;;;;1999.90;999.90;;;12.50;72.00;;;;;;4969939;28;20037;-87
2022/03/15 08:43:08;;;;;;;1999.90;999.90;;;12.60;72.10;;;;;;4970140;28;20037;-88
2022/03/15 08:45:34;;;;;;;1999.90;999.90;;;12.60;72.10;;;;;;4953650;28;20062;-87
2022/03/15 08:48:01;;;;;;;1999.90;999.90;;;12.60;72.00;;;;;;4965575;28;20039;-89
2022/03/15 08:50:27;;;;;;;1999.90;999.90;;;12.60;72.00;;;;;;4969469;28;20051;-89
2022/03/15 08:52:55;;;;;;;1999.90;999.90;;;12.70;72.10;;;;;;4971892;28;20034;-90
2022/03/15 08:55:22;;;;;;;1999.90;999.90;;;12.70;72.10;;;;;;4972804;28;20050;-89
2022/03/15 08:57:48;;;;;;;1999.90;999.90;;;12.80;72.10;;;;;;4971826;28;20041;-88
2022/03/15 09:00:15;;;;;;;1999.90;999.90;;;12.80;72.00;;;;;;4968690;28;20050;-89
2022/03/15 09:02:41;;;;;;;1999.90;999.90;;;12.80;71.90;;;;;;4946702;28;20027;-90
2022/03/15 09:05:07;;;;;;;1999.90;999.90;;;12.90;71.90;;;;;;4954740;28;20038;-90
2022/03/15 09:07:36;;;;;;;1999.90;999.90;;;12.90;72.10;;;;;;4952442;28;20026;-89
2022/03/15 09:10:03;;;;;;;1999.90;999.90;;;12.90;72.10;;;;;;4970680;28;20050;-90
2022/03/15 09:12:30;;;;;;;1999.90;999.90;;;12.90;72.20;;;;;;4950854;28;20480;-86
2022/03/15 09:14:56;;;;;;;1999.90;999.90;;;12.90;72.40;;;;;;4953534;28;20506;-85
2022/03/15 09:17:22;;;;;;;1999.90;999.90;;;12.90;72.80;;;;;;4971052;28;20043;-86
2022/03/15 09:19:50;;;;;;;1999.90;999.90;;;12.90;72.80;;;;;;4937103;29;20061;-84
2022/03/15 09:22:16;;;;;;;1999.90;999.90;;;12.90;73.00;;;;;;4969100;28;20031;-83
2022/03/15 09:24:43;;;;;;;1999.90;999.90;;;12.90;72.90;;;;;;4970590;28;20031;-82
2022/03/15 09:27:10;;;;;;;1999.90;999.90;;;12.90;73.00;;;;;;4952717;28;20035;-82
2022/03/15 09:29:36;;;;;;;1999.90;999.90;;;13.00;73.00;;;;;;4954076;28;20054;-83
2022/03/15 09:32:04;;;;;;;1999.90;999.90;;;13.00;72.80;;;;;;4971067;28;20045;-82
2022/03/15 09:34:30;;;;;;;1999.90;999.90;;;13.10;72.70;;;;;;4971277;28;20059;-83
2022/03/15 09:37:00;;;;;;;1999.90;999.90;;;13.20;72.50;;;;;;4953883;28;20039;-81
2022/03/15 09:39:27;;;;;;;1999.90;999.90;;;13.30;72.40;;;;;;4968198;28;20047;-81
2022/03/15 09:41:54;;;;;;;1999.90;999.90;;;13.30;72.40;;;;;;4967832;28;20550;-81
2022/03/15 09:44:20;;;;;;;1999.90;999.90;;;13.40;72.40;;;;;;4953744;28;20048;-81
2022/03/15 09:46:51;;;;;;;1999.90;999.90;;;13.40;72.20;;;;;;4955217;28;20034;-83
2022/03/15 09:49:20;;;;;;;1999.90;999.90;;;13.50;72.30;;;;;;4954632;28;20066;-83
2022/03/15 09:51:46;;;;;;;1999.90;999.90;;;13.50;72.20;;;;;;4971305;28;20045;-82
2022/03/15 09:54:13;;;;;;;1999.90;999.90;;;13.50;72.20;;;;;;4967621;28;20042;-82
2022/03/15 09:56:39;;;;;;;1999.90;999.90;;;13.60;71.60;;;;;;4952475;28;20031;-84
2022/03/15 09:59:09;;;;;;;1999.90;999.90;;;13.60;72.20;;;;;;4968597;28;20023;-85
2022/03/15 10:01:35;;;;;;;1999.90;999.90;;;13.70;72.20;;;;;;4953733;28;20492;-84
2022/03/15 10:04:01;;;;;;;1999.90;999.90;;;13.70;72.10;;;;;;4951815;28;20046;-89
2022/03/15 10:06:27;;;;;;;1999.90;999.90;;;13.70;72.10;;;;;;4966890;28;20031;-83
2022/03/15 10:08:53;;;;;;;1999.90;999.90;;;13.80;72.10;;;;;;4954571;28;20051;-84
2022/03/15 10:11:20;;;;;;;1999.90;999.90;;;13.80;72.00;;;;;;4946735;28;20515;-86
2022/03/15 10:13:47;;;;;;;1999.90;999.90;;;13.90;72.10;;;;;;4954524;28;20043;-84
2022/03/15 10:16:13;;;;;;;1999.90;999.90;;;13.90;72.00;;;;;;4968719;28;20043;-82
2022/03/15 10:18:50;;;;;;;1999.90;999.90;;;13.90;72.00;;;;;;4953244;28;20043;-86
2022/03/15 10:21:16;;;;;;;1999.90;999.90;;;13.90;72.20;;;;;;4968369;28;20035;-88
2022/03/15 10:23:42;;;;;;;1999.90;999.90;;;13.90;72.30;;;;;;4939489;28;20058;-86
2022/03/15 10:26:08;;;;;;;1999.90;999.90;;;13.90;72.20;;;;;;4935548;28;20058;-79
2022/03/15 10:28:36;;;;;;;1999.90;999.90;;;14.00;72.30;;;;;;4968503;28;20034;-86
2022/03/15 10:31:04;;;;;;;1999.90;999.90;;;14.00;72.30;;;;;;4949944;28;20492;-86
2022/03/15 10:33:32;;;;;;;1999.90;999.90;;;14.10;72.30;;;;;;4954016;28;20035;-86
2022/03/15 10:35:58;;;;;;;1999.90;999.90;;;14.10;72.20;;;;;;4969636;28;20481;-87
2022/03/15 10:38:24;;;;;;;1999.90;999.90;;;14.20;72.10;;;;;;4969621;28;20040;-86
2022/03/15 10:40:54;;;;;;;1999.90;999.90;;;14.30;72.00;;;;;;4971768;28;20031;-87
2022/03/15 10:43:27;;;;;;;1999.90;999.90;;;14.30;72.00;;;;;;4955398;28;20116;-87
2022/03/15 10:45:58;;;;;;;1999.90;999.90;;;14.30;71.90;;;;;;4967919;28;20042;-86
2022/03/15 10:48:27;;;;;;;1999.90;999.90;;;14.40;71.90;;;;;;4968821;28;20023;-87
2022/03/15 10:51:01;;;;;;;1999.90;999.90;;;14.50;71.90;;;;;;4973330;28;20065;-85
2022/03/15 10:53:36;;;;;;;1999.90;999.90;;;14.50;71.70;;;;;;4974695;28;20050;-87
2022/03/15 10:56:22;;;;;;;1999.90;999.90;;;14.60;71.70;;;;;;4973994;28;20518;-86
2022/03/15 10:58:52;;;;;;;1999.90;999.90;;;14.60;71.70;;;;;;4974845;28;20031;-87
2022/03/15 11:01:19;;;;;;;1999.90;999.90;;;14.60;71.70;;;;;;4970878;28;20039;-86
2022/03/15 11:03:56;;;;;;;1999.90;999.90;;;14.70;71.80;;;;;;4941604;28;20496;-86
2022/03/15 11:06:38;;;;;;;1999.90;999.90;;;14.70;71.80;;;;;;4973847;28;20384;-86
2022/03/15 11:09:23;;;;;;;1999.90;999.90;;;14.70;71.80;;;;;;4974941;28;20039;-86
2022/03/15 11:11:52;;;;;;;1999.90;999.90;;;14.70;71.90;;;;;;4974675;28;20049;-87
2022/03/15 11:14:45;;;;;;;1999.90;999.90;;;14.70;71.90;;;;;;4990149;28;20043;-86
2022/03/15 11:17:18;;;;;;;1999.90;999.90;;;14.80;71.90;;;;;;4972312;28;20039;-86
2022/03/15 11:19:46;;;;;;;1999.90;999.90;;;14.90;71.70;;;;;;4974124;28;20038;-86
2022/03/15 11:22:20;;;;;;;1999.90;999.90;;;14.90;71.50;;;;;;4957668;28;20035;-86
2022/03/15 11:25:17;;;;;;;1999.90;999.90;;;15.00;71.40;;;;;;4973646;28;20027;-87
2022/03/15 11:27:44;;;;;;;1999.90;999.90;;;15.10;71.40;;;;;;4965231;28;20034;-86
2022/03/15 11:30:17;;;;;;;1999.90;999.90;;;15.10;71.30;;;;;;4973151;28;20492;-88
2022/03/15 11:32:44;;;;;;;1999.90;999.90;;;15.10;71.20;;;;;;4958032;28;20320;-87
2022/03/15 11:35:11;;;;;;;1999.90;999.90;;;15.20;71.20;;;;;;4957298;28;20376;-87
2022/03/15 11:37:38;;;;;;;1999.90;999.90;;;15.20;71.20;;;;;;4957621;28;20039;-86
2022/03/15 11:40:06;;;;;;;1999.90;999.90;;;15.20;71.20;;;;;;4973262;28;20057;-86
2022/03/15 11:42:32;;;;;;;1999.90;999.90;;;15.20;71.10;;;;;;4957385;28;20483;-87
2022/03/15 11:45:24;;;;;;;1999.90;999.90;;;15.30;71.10;;;;;;4956471;28;20050;-86
2022/03/15 11:48:15;;;;;;;1999.90;999.90;;;15.30;71.00;;;;;;4988590;28;20043;-87
2022/03/15 11:51:13;;;;;;;1999.90;999.90;;;15.40;71.00;;;;;;4962103;28;20435;-87
2022/03/15 11:54:19;;;;;;;1999.90;999.90;;;15.40;70.90;;;;;;4947199;28;20038;-87
2022/03/15 11:56:51;;;;;;;1999.90;999.90;;;15.40;70.70;;;;;;4972039;28;20030;-87
2022/03/15 11:59:17;;;;;;;1999.90;999.90;;;15.50;70.70;;;;;;4956281;28;20038;-87
2022/03/15 12:01:48;;;;;;;1999.90;999.90;;;15.60;70.80;;;;;;4971736;28;20035;-87
2022/03/15 12:04:15;;;;;;;1999.90;999.90;;;15.70;70.60;;;;;;4939807;28;20041;-87
2022/03/15 12:06:50;;;;;;;1999.90;999.90;;;15.70;70.50;;;;;;4940360;28;20050;-87